createdAt,value
2022-12-19T00:01:20.419Z,26.29
2022-12-19T00:03:46.857Z,26.79
2022-12-19T00:06:13.245Z,26.35
2022-12-19T00:08:39.632Z,25.93
2022-12-19T00:11:06.065Z,26.52
2022-12-19T00:13:33.650Z,26.62
2022-12-19T00:16:07.280Z,25.23
2022-12-19T00:18:33.678Z,25.93
2022-12-19T00:21:00.080Z,25.16
2022-12-19T00:23:26.432Z,25.33
2022-12-19T00:25:52.837Z,25.34
2022-12-19T00:28:20.225Z,25.28
2022-12-19T00:30:47.813Z,24.96
2022-12-19T00:33:14.171Z,25.21
2022-12-19T00:35:40.552Z,25.89
2022-12-19T00:38:06.936Z,25.84
2022-12-19T00:40:33.322Z,26.16
2022-12-19T00:42:59.701Z,25.37
2022-12-19T00:45:27.115Z,25.95
2022-12-19T00:47:55.549Z,26.49
2022-12-19T00:50:21.894Z,26.08
2022-12-19T00:52:48.236Z,25.15
2022-12-19T00:55:18.410Z,25.45
2022-12-19T00:57:45.646Z,26.27
2022-12-19T01:00:11.988Z,26.08
2022-12-19T01:02:38.513Z,26.31
2022-12-19T01:05:05.024Z,26.51
2022-12-19T01:07:31.376Z,26.24
2022-12-19T01:09:57.755Z,26.17
2022-12-19T01:12:24.573Z,26.65
2022-12-19T01:14:51.387Z,26.26
2022-12-19T01:17:17.757Z,26.88
2022-12-19T01:19:44.849Z,27.45
2022-12-19T01:22:11.290Z,27.33
2022-12-19T01:24:37.775Z,25.94
2022-12-19T01:27:04.182Z,26.15
2022-12-19T01:29:30.538Z,26.28
2022-12-19T01:31:58.504Z,26.34
2022-12-19T01:34:24.921Z,25.71
2022-12-19T01:36:51.280Z,26.01
2022-12-19T01:39:17.661Z,26.30
2022-12-19T01:41:44.011Z,24.99
2022-12-19T01:44:10.343Z,25.04
2022-12-19T01:46:36.787Z,25.71
2022-12-19T01:49:03.235Z,26.02
2022-12-19T01:51:29.620Z,25.64
2022-12-19T01:53:55.971Z,25.99
2022-12-19T01:56:22.296Z,25.45
2022-12-19T01:58:48.701Z,25.68
2022-12-19T02:01:15.159Z,24.86
2022-12-19T02:03:41.591Z,25.84
2022-12-19T02:06:07.989Z,26.15
2022-12-19T02:08:34.377Z,25.35
2022-12-19T02:11:01.366Z,25.99
2022-12-19T02:13:27.798Z,25.85
2022-12-19T02:15:54.189Z,26.30
2022-12-19T02:18:20.549Z,26.52
2022-12-19T02:20:46.889Z,25.88
2022-12-19T02:23:13.263Z,26.89
2022-12-19T02:25:40.224Z,28.58
2022-12-19T02:28:06.816Z,27.49
2022-12-19T02:30:33.443Z,26.16
2022-12-19T02:32:59.838Z,27.30
2022-12-19T02:35:26.219Z,28.83
2022-12-19T02:37:52.604Z,27.78
2022-12-19T02:40:20.440Z,27.15
2022-12-19T02:42:46.840Z,28.03
2022-12-19T02:45:13.210Z,28.17
2022-12-19T02:47:43.143Z,28.21
2022-12-19T02:50:09.496Z,28.23
2022-12-19T02:52:35.882Z,29.27
2022-12-19T02:55:02.280Z,27.89
2022-12-19T02:57:28.636Z,27.08
2022-12-19T02:59:55.389Z,26.21
2022-12-19T03:02:23.397Z,26.13
2022-12-19T03:04:49.849Z,25.99
2022-12-19T03:07:16.240Z,26.05
2022-12-19T03:09:42.851Z,26.19
2022-12-19T03:12:11.623Z,26.08
2022-12-19T03:14:40.532Z,26.18
2022-12-19T03:17:06.962Z,26.22
2022-12-19T03:19:33.397Z,25.35
2022-12-19T03:21:59.756Z,26.32
2022-12-19T03:24:26.402Z,26.16
2022-12-19T03:26:52.831Z,25.72
2022-12-19T03:29:19.187Z,26.05
2022-12-19T03:31:45.521Z,27.17
2022-12-19T03:34:11.864Z,27.48
2022-12-19T03:36:38.257Z,28.67
2022-12-19T03:39:04.969Z,27.08
2022-12-19T03:41:31.364Z,27.92
2022-12-19T03:43:57.723Z,27.79
2022-12-19T03:46:24.308Z,27.65
2022-12-19T03:48:50.681Z,28.14
2022-12-19T03:51:17.071Z,28.95
2022-12-19T03:53:43.421Z,28.93
2022-12-19T03:56:09.801Z,29.18
2022-12-19T03:58:36.210Z,29.14
2022-12-19T04:01:02.601Z,29.20
2022-12-19T04:03:29.060Z,29.45
2022-12-19T04:05:55.483Z,28.44
2022-12-19T04:08:21.900Z,29.46
2022-12-19T04:10:48.288Z,28.67
2022-12-19T04:13:14.663Z,28.08
2022-12-19T04:15:41.087Z,27.66
2022-12-19T04:18:07.497Z,27.56
2022-12-19T04:20:34.322Z,27.54
2022-12-19T04:23:00.726Z,28.44
2022-12-19T04:25:29.504Z,27.00
2022-12-19T04:27:56.105Z,28.60
2022-12-19T04:30:22.490Z,28.62
2022-12-19T04:32:48.855Z,28.75
2022-12-19T04:35:15.223Z,28.19
2022-12-19T04:37:41.588Z,28.23
2022-12-19T04:40:07.958Z,28.31
2022-12-19T04:42:34.305Z,27.46
2022-12-19T04:45:00.654Z,26.89
2022-12-19T04:47:27.033Z,27.29
2022-12-19T04:49:53.391Z,26.74
2022-12-19T04:52:19.788Z,26.93
2022-12-19T04:54:46.144Z,27.16
2022-12-19T04:57:12.524Z,27.36
2022-12-19T04:59:38.911Z,26.76
2022-12-19T05:02:05.363Z,26.67
2022-12-19T05:04:31.853Z,28.61
2022-12-19T05:06:58.235Z,27.72
2022-12-19T05:09:25.198Z,26.16
2022-12-19T05:11:51.597Z,26.64
2022-12-19T05:14:17.948Z,27.69
2022-12-19T05:16:44.429Z,28.80
2022-12-19T05:19:10.795Z,27.75
2022-12-19T05:21:37.140Z,28.08
2022-12-19T05:24:03.540Z,28.66
2022-12-19T05:26:29.923Z,28.84
2022-12-19T05:28:56.354Z,28.90
2022-12-19T05:31:22.774Z,29.53
2022-12-19T05:33:49.397Z,28.57
2022-12-19T05:36:15.788Z,28.50
2022-12-19T05:38:42.154Z,28.58
2022-12-19T05:41:08.492Z,28.58
2022-12-19T05:43:34.880Z,28.17
2022-12-19T05:46:01.294Z,28.18
2022-12-19T05:48:27.680Z,28.61
2022-12-19T05:50:54.067Z,27.50
2022-12-19T05:53:24.611Z,28.16
2022-12-19T05:55:52.337Z,28.13
2022-12-19T05:58:18.762Z,28.34
2022-12-19T06:00:45.162Z,27.38
2022-12-19T06:03:11.676Z,27.36
2022-12-19T06:05:38.142Z,28.48
2022-12-19T06:08:04.522Z,27.84
2022-12-19T06:10:30.940Z,27.53
2022-12-19T06:12:57.305Z,27.44
2022-12-19T06:15:23.660Z,27.59
2022-12-19T06:17:50.006Z,27.77
2022-12-19T06:20:16.374Z,27.94
2022-12-19T06:22:42.783Z,28.12
2022-12-19T06:25:09.182Z,28.93
2022-12-19T06:27:35.550Z,29.19
2022-12-19T06:30:01.914Z,28.86
2022-12-19T06:32:28.267Z,28.92
2022-12-19T06:35:04.076Z,27.73
2022-12-19T06:37:30.668Z,28.86
2022-12-19T06:39:57.009Z,29.00
2022-12-19T06:42:23.387Z,29.13
2022-12-19T06:44:49.788Z,29.49
2022-12-19T06:47:16.137Z,30.67
2022-12-19T06:49:42.479Z,30.30
2022-12-19T06:52:09.338Z,29.55
2022-12-19T06:54:35.810Z,29.47
2022-12-19T06:57:02.216Z,30.38
2022-12-19T06:59:28.578Z,29.82
2022-12-19T07:01:55.051Z,29.21
2022-12-19T07:04:21.768Z,28.93
2022-12-19T07:06:49.410Z,29.51
2022-12-19T07:09:15.933Z,28.92
2022-12-19T07:11:42.278Z,29.26
2022-12-19T07:14:08.659Z,30.17
2022-12-19T07:16:37.227Z,30.22
2022-12-19T07:19:03.677Z,29.72
2022-12-19T07:21:30.035Z,30.07
2022-12-19T07:23:56.414Z,29.74
2022-12-19T07:26:22.801Z,29.48
2022-12-19T07:28:49.160Z,29.55
2022-12-19T07:31:15.586Z,28.65
2022-12-19T07:33:41.949Z,29.28
2022-12-19T07:36:08.321Z,28.89
2022-12-19T07:38:34.713Z,29.03
2022-12-19T07:41:01.116Z,29.09
2022-12-19T07:43:27.513Z,29.60
2022-12-19T07:45:53.946Z,29.82
2022-12-19T07:48:20.385Z,29.41
2022-12-19T07:50:46.750Z,29.70
2022-12-19T07:53:13.142Z,29.78
2022-12-19T07:55:39.545Z,29.57
2022-12-19T07:58:05.936Z,29.76
2022-12-19T08:00:32.340Z,30.58
2022-12-19T08:02:58.899Z,31.55
2022-12-19T08:05:25.381Z,30.69
2022-12-19T08:07:51.803Z,29.78
2022-12-19T08:10:18.181Z,30.17
2022-12-19T08:12:44.526Z,29.44
2022-12-19T08:15:11.007Z,29.69
2022-12-19T08:17:37.783Z,30.59
2022-12-19T08:20:04.140Z,30.71
2022-12-19T08:22:30.676Z,30.34
2022-12-19T08:24:57.067Z,29.96
2022-12-19T08:27:23.471Z,30.59
2022-12-19T08:29:49.869Z,30.51
2022-12-19T08:32:20.774Z,30.89
2022-12-19T08:34:47.711Z,30.64
2022-12-19T08:37:14.095Z,30.00
2022-12-19T08:39:40.506Z,29.60
2022-12-19T08:42:06.912Z,29.24
2022-12-19T08:44:33.304Z,29.16
2022-12-19T08:46:59.686Z,29.39
2022-12-19T08:49:26.088Z,29.23
2022-12-19T08:51:52.492Z,29.34
2022-12-19T08:54:18.866Z,28.52
2022-12-19T08:56:46.855Z,28.94
2022-12-19T08:59:13.597Z,29.31
2022-12-19T09:01:42.413Z,29.58
2022-12-19T09:05:47.727Z,29.59
2022-12-19T09:06:55.293Z,29.38
2022-12-19T09:09:21.644Z,29.19
2022-12-19T09:11:48.438Z,28.72
2022-12-19T09:14:14.912Z,28.84
2022-12-19T09:16:47.006Z,29.26
2022-12-19T09:19:13.496Z,29.03
2022-12-19T09:21:39.916Z,29.25
2022-12-19T09:24:08.145Z,28.72
2022-12-19T09:26:34.623Z,28.67
2022-12-19T09:29:01.044Z,28.17
2022-12-19T09:31:28.807Z,28.02
2022-12-19T09:33:55.183Z,27.96
2022-12-19T09:36:21.548Z,27.62
2022-12-19T09:38:47.960Z,28.48
2022-12-19T09:41:15.801Z,27.92
2022-12-19T09:43:44.421Z,27.59
2022-12-19T09:46:10.811Z,28.52
2022-12-19T09:48:37.174Z,28.34
2022-12-19T09:51:09.610Z,28.34
2022-12-19T09:53:37.334Z,27.28
2022-12-19T09:56:03.690Z,27.90
2022-12-19T09:58:30.054Z,27.96
2022-12-19T10:00:59.680Z,27.15
2022-12-19T10:03:32.272Z,27.05
2022-12-19T10:07:09.383Z,27.46
2022-12-19T10:09:26.851Z,26.00
2022-12-19T10:12:43.497Z,25.46
2022-12-19T10:14:25.598Z,25.50
2022-12-19T10:17:22.484Z,24.79
2022-12-19T10:19:39.936Z,24.93
2022-12-19T10:22:18.254Z,24.09
2022-12-19T10:24:46.478Z,24.93
2022-12-19T10:27:30.214Z,24.57
2022-12-19T10:29:56.633Z,24.16
2022-12-19T10:32:23.038Z,24.15
2022-12-19T10:34:49.442Z,24.08
2022-12-19T10:37:24.360Z,24.08
2022-12-19T10:39:55.958Z,25.51
2022-12-19T10:42:22.406Z,26.71
2022-12-19T10:44:48.777Z,27.27
2022-12-19T10:47:15.190Z,28.09
2022-12-19T10:49:41.601Z,26.95
2022-12-19T10:52:08.057Z,26.36
2022-12-19T10:54:34.463Z,25.60
2022-12-19T10:57:07.394Z,26.75
2022-12-19T10:59:33.800Z,26.01
2022-12-19T11:02:01.191Z,25.48
2022-12-19T11:04:28.170Z,26.03
2022-12-19T11:06:54.525Z,24.39
2022-12-19T11:09:21.000Z,25.52
2022-12-19T11:14:30.409Z,25.22
2022-12-19T11:19:18.740Z,25.42
2022-12-19T11:23:40.153Z,24.60
2022-12-19T11:29:31.808Z,27.14
2022-12-19T11:29:37.162Z,25.95
2022-12-19T11:30:06.588Z,26.79
2022-12-19T11:30:25.886Z,26.59
2022-12-19T11:33:58.329Z,25.99
2022-12-19T11:36:24.703Z,25.94
2022-12-19T11:38:51.054Z,23.71
2022-12-19T11:41:17.404Z,24.99
2022-12-19T11:43:45.918Z,24.97
2022-12-19T11:46:17.658Z,24.01
2022-12-19T11:48:47.663Z,24.90
2022-12-19T11:51:14.017Z,25.74
2022-12-19T11:53:40.383Z,25.12
2022-12-19T11:56:08.109Z,24.24
2022-12-19T11:58:43.032Z,23.23
2022-12-19T12:01:10.031Z,23.81
2022-12-19T12:03:36.497Z,25.18
2022-12-19T12:06:02.911Z,25.45
2022-12-19T12:10:35.929Z,25.36
2022-12-19T12:18:40.779Z,23.45
2022-12-19T12:24:20.693Z,22.63
2022-12-19T12:30:12.888Z,23.95
2022-12-19T12:31:19.068Z,23.26
2022-12-19T12:31:27.172Z,24.25
2022-12-19T12:31:38.596Z,23.34
2022-12-19T12:31:49.891Z,23.15
2022-12-19T12:32:06.317Z,22.76
2022-12-19T12:35:32.783Z,23.87
2022-12-19T12:38:59.283Z,23.28
2022-12-19T12:41:25.700Z,23.05
2022-12-19T12:43:52.110Z,25.15
2022-12-19T12:46:18.538Z,24.90
2022-12-19T12:48:44.939Z,24.92
2022-12-19T12:51:11.296Z,23.22
2022-12-19T12:53:37.642Z,23.14
2022-12-19T12:56:06.598Z,23.01
2022-12-19T12:58:33.626Z,24.29
2022-12-19T13:01:00.056Z,22.41
2022-12-19T13:03:26.527Z,22.91
2022-12-19T13:05:52.945Z,23.30
2022-12-19T13:08:19.316Z,24.52
2022-12-19T13:10:45.701Z,24.54
2022-12-19T13:13:15.701Z,24.43
2022-12-19T13:15:43.819Z,25.08
2022-12-19T13:18:10.179Z,24.58
2022-12-19T13:20:36.572Z,24.38
2022-12-19T13:23:02.943Z,23.59
2022-12-19T13:25:29.331Z,25.79
2022-12-19T13:27:57.680Z,26.52
2022-12-19T13:30:25.094Z,25.81
2022-12-19T13:32:51.529Z,25.93
2022-12-19T13:36:38.932Z,25.52
2022-12-19T13:40:00.504Z,24.68
2022-12-19T13:40:50.585Z,24.58
2022-12-19T13:43:16.946Z,24.73
2022-12-19T13:45:43.385Z,24.63
2022-12-19T13:48:09.814Z,24.38
2022-12-19T13:50:37.049Z,24.95
2022-12-19T13:53:03.443Z,25.04
2022-12-19T13:55:29.798Z,25.50
2022-12-19T13:57:56.183Z,25.61
2022-12-19T14:00:22.583Z,26.47
2022-12-19T14:02:49.231Z,26.41
2022-12-19T14:05:15.782Z,26.71
2022-12-19T14:07:42.149Z,27.19
2022-12-19T14:11:35.949Z,26.27
2022-12-19T14:13:53.115Z,25.54
2022-12-19T14:15:41.289Z,25.81
2022-12-19T14:18:42.857Z,26.20
2022-12-19T14:22:10.257Z,25.45
2022-12-19T14:23:43.636Z,25.35
2022-12-19T14:28:21.289Z,24.40
2022-12-19T14:28:57.116Z,24.87
2022-12-19T14:31:23.545Z,26.23
2022-12-19T14:36:36.245Z,24.87
2022-12-19T14:39:22.941Z,25.38
2022-12-19T14:41:49.006Z,24.43
2022-12-19T14:53:08.459Z,25.23
2022-12-19T14:53:52.227Z,24.99
2022-12-19T14:54:23.410Z,25.19
2022-12-19T14:54:31.209Z,25.04
2022-12-19T14:56:19.521Z,25.41
2022-12-19T14:58:53.360Z,24.34
2022-12-19T15:01:09.086Z,24.21
2022-12-19T15:03:37.732Z,23.19
2022-12-19T15:07:05.897Z,25.12
2022-12-19T15:10:58.224Z,24.10
2022-12-19T15:11:54.066Z,23.07
2022-12-19T15:14:50.663Z,23.70
2022-12-19T15:17:10.081Z,21.09
2022-12-19T15:19:36.440Z,19.33
2022-12-19T15:22:02.815Z,19.98
2022-12-19T15:24:29.184Z,19.48
2022-12-19T15:26:55.841Z,18.60
2022-12-19T15:29:22.502Z,21.60
2022-12-19T15:31:48.979Z,22.21
2022-12-19T15:34:34.082Z,22.19
2022-12-19T15:37:01.701Z,19.71
2022-12-19T15:39:28.063Z,20.36
2022-12-19T15:41:54.419Z,20.37
2022-12-19T15:44:20.813Z,19.59
2022-12-19T15:46:49.415Z,21.77
2022-12-19T15:49:16.129Z,19.78
2022-12-19T15:51:42.536Z,17.94
2022-12-19T15:54:46.760Z,17.96
2022-12-19T15:56:55.289Z,16.53
2022-12-19T15:59:21.711Z,17.06
2022-12-19T16:01:48.147Z,18.68
2022-12-19T16:04:14.800Z,19.23
2022-12-19T16:06:41.366Z,18.17
2022-12-19T16:09:07.748Z,17.04
2022-12-19T16:11:34.096Z,16.92
2022-12-19T16:14:00.446Z,16.28
2022-12-19T16:16:26.879Z,16.05
2022-12-19T16:18:53.288Z,14.95
2022-12-19T16:21:19.649Z,14.51
2022-12-19T16:23:46.002Z,14.23
2022-12-19T16:26:12.370Z,14.75
2022-12-19T16:28:38.721Z,13.37
2022-12-19T16:31:05.164Z,12.94
2022-12-19T16:33:31.559Z,14.21
2022-12-19T16:36:06.469Z,13.97
2022-12-19T16:38:33.551Z,13.27
2022-12-19T16:41:00.114Z,13.25
2022-12-19T16:43:26.515Z,12.05
2022-12-19T16:45:55.724Z,11.86
2022-12-19T16:48:26.315Z,11.94
2022-12-19T16:50:52.673Z,12.68
2022-12-19T16:53:19.098Z,12.95
2022-12-19T16:55:45.532Z,12.67
2022-12-19T16:58:11.907Z,11.81
2022-12-19T17:00:38.313Z,12.58
2022-12-19T17:03:04.729Z,13.47
2022-12-19T17:05:31.230Z,14.07
2022-12-19T17:07:57.651Z,13.55
2022-12-19T17:10:26.401Z,13.95
2022-12-19T17:12:52.981Z,15.30
2022-12-19T17:15:19.382Z,14.68
2022-12-19T17:17:45.818Z,14.73
2022-12-19T17:20:12.165Z,14.74
2022-12-19T17:22:38.559Z,13.72
2022-12-19T17:25:04.923Z,14.01
2022-12-19T17:27:31.279Z,13.04
2022-12-19T17:29:57.700Z,12.07
2022-12-19T17:32:24.780Z,12.27
2022-12-19T17:34:51.292Z,11.89
2022-12-19T17:37:17.650Z,11.93
2022-12-19T17:39:44.034Z,12.90
2022-12-19T17:42:10.402Z,12.45
2022-12-19T17:44:36.812Z,12.31
2022-12-19T17:47:03.217Z,12.18
2022-12-19T17:49:29.578Z,11.74
2022-12-19T17:51:55.918Z,11.39
2022-12-19T17:54:22.315Z,10.98
2022-12-19T17:56:48.747Z,10.66
2022-12-19T17:59:15.103Z,13.79
2022-12-19T18:01:41.559Z,13.31
2022-12-19T18:04:08.135Z,13.56
2022-12-19T18:06:34.478Z,12.92
2022-12-19T18:09:00.814Z,13.58
2022-12-19T18:11:27.244Z,13.68
2022-12-19T18:13:53.675Z,14.38
2022-12-19T18:16:20.138Z,13.73
2022-12-19T18:18:46.577Z,13.43
2022-12-19T18:21:12.936Z,12.38
2022-12-19T18:23:39.324Z,11.74
2022-12-19T18:26:05.717Z,12.36
2022-12-19T18:28:32.080Z,11.81
2022-12-19T18:30:58.541Z,11.55
2022-12-19T18:33:24.984Z,11.33
2022-12-19T18:35:51.340Z,11.60
2022-12-19T18:38:17.732Z,11.92
2022-12-19T18:40:44.148Z,11.91
2022-12-19T18:43:10.486Z,11.93
2022-12-19T18:45:36.998Z,12.16
2022-12-19T18:48:03.482Z,12.01
2022-12-19T18:50:29.894Z,12.53
2022-12-19T18:52:56.296Z,12.27
2022-12-19T18:55:22.681Z,13.35
2022-12-19T18:57:49.069Z,12.77
2022-12-19T19:00:15.434Z,12.57
2022-12-19T19:02:41.905Z,12.13
2022-12-19T19:05:08.395Z,11.62
2022-12-19T19:07:34.779Z,11.47
2022-12-19T19:10:01.153Z,11.10
2022-12-19T19:12:27.547Z,11.99
2022-12-19T19:14:53.933Z,11.86
2022-12-19T19:17:20.349Z,11.65
2022-12-19T19:19:46.743Z,11.86
2022-12-19T19:22:13.114Z,12.33
2022-12-19T19:24:39.525Z,12.61
2022-12-19T19:27:05.929Z,12.71
2022-12-19T19:29:32.286Z,13.04
2022-12-19T19:31:58.688Z,13.77
2022-12-19T19:34:25.046Z,13.17
2022-12-19T19:36:51.471Z,13.03
2022-12-19T19:39:17.869Z,12.80
2022-12-19T19:41:44.243Z,12.68
2022-12-19T19:44:10.647Z,12.17
2022-12-19T19:46:37.123Z,11.90
2022-12-19T19:49:03.568Z,11.67
2022-12-19T19:51:29.944Z,12.36
2022-12-19T19:53:56.307Z,11.58
2022-12-19T19:56:22.715Z,11.56
2022-12-19T19:58:49.109Z,12.57
2022-12-19T20:01:15.576Z,12.03
2022-12-19T20:03:42.124Z,11.37
2022-12-19T20:06:09.281Z,11.74
2022-12-19T20:08:39.693Z,12.53
2022-12-19T20:11:06.710Z,12.10
2022-12-19T20:13:33.103Z,11.58
2022-12-19T20:15:59.525Z,12.05
2022-12-19T20:18:25.968Z,12.35
2022-12-19T20:20:52.309Z,12.38
2022-12-19T20:23:18.708Z,13.88
2022-12-19T20:25:45.057Z,16.02
2022-12-19T20:28:11.461Z,16.24
2022-12-19T20:30:37.867Z,17.01
2022-12-19T20:33:04.267Z,16.22
2022-12-19T20:35:30.643Z,17.82
2022-12-19T20:37:57.010Z,21.14
2022-12-19T20:40:23.404Z,18.63
2022-12-19T20:42:49.778Z,17.19
2022-12-19T20:45:16.298Z,16.06
2022-12-19T20:47:42.705Z,15.16
2022-12-19T20:50:09.095Z,11.01
2022-12-19T20:52:35.523Z,9.16
2022-12-19T20:55:01.881Z,10.87
2022-12-19T20:57:28.266Z,11.90
2022-12-19T20:59:54.653Z,9.25
2022-12-19T21:02:21.124Z,8.98
2022-12-19T21:04:47.695Z,8.20
2022-12-19T21:07:14.148Z,8.38
2022-12-19T21:09:40.508Z,7.81
2022-12-19T21:12:07.056Z,7.77
2022-12-19T21:14:33.413Z,7.68
2022-12-19T21:16:59.811Z,8.10
2022-12-19T21:19:26.219Z,7.83
2022-12-19T21:21:52.597Z,8.27
2022-12-19T21:24:19.058Z,9.19
2022-12-19T21:26:45.451Z,9.50
2022-12-19T21:29:11.856Z,8.87
2022-12-19T21:31:38.258Z,8.75
2022-12-19T21:34:04.657Z,8.87
2022-12-19T21:36:31.109Z,8.92
2022-12-19T21:38:57.539Z,9.08
2022-12-19T21:41:24.011Z,9.38
2022-12-19T21:43:51.139Z,9.04
2022-12-19T21:46:17.577Z,9.15
2022-12-19T21:48:44.032Z,9.40
2022-12-19T21:51:10.450Z,9.69
2022-12-19T21:53:36.831Z,9.52
2022-12-19T21:56:03.202Z,9.68
2022-12-19T21:58:29.587Z,9.38
2022-12-19T22:00:55.958Z,9.65
2022-12-19T22:03:22.460Z,9.18
2022-12-19T22:05:48.905Z,8.99
2022-12-19T22:08:15.320Z,9.56
2022-12-19T22:10:41.699Z,9.36
2022-12-19T22:13:08.113Z,8.71
2022-12-19T22:15:34.525Z,8.53
2022-12-19T22:18:00.893Z,9.84
2022-12-19T22:20:27.256Z,10.32
2022-12-19T22:22:53.644Z,10.33
2022-12-19T22:25:19.996Z,9.65
2022-12-19T22:27:46.330Z,10.28
2022-12-19T22:30:12.673Z,9.90
2022-12-19T22:32:39.051Z,9.94
2022-12-19T22:35:05.410Z,10.07
2022-12-19T22:37:31.866Z,9.76
2022-12-19T22:39:58.350Z,9.80
2022-12-19T22:42:24.750Z,8.94
2022-12-19T22:44:51.147Z,11.66
2022-12-19T22:47:17.497Z,17.60
2022-12-19T22:49:43.889Z,12.78
2022-12-19T22:52:10.287Z,14.26
2022-12-19T22:54:36.682Z,13.55
2022-12-19T22:57:03.042Z,12.89
2022-12-19T22:59:29.413Z,11.26
2022-12-19T23:01:55.898Z,12.30
2022-12-19T23:04:22.571Z,13.19
2022-12-19T23:06:49.000Z,14.17
2022-12-19T23:09:15.386Z,14.52
2022-12-19T23:11:41.733Z,14.70
2022-12-19T23:14:08.134Z,14.04
2022-12-19T23:16:34.596Z,14.60
2022-12-19T23:19:01.044Z,14.14
2022-12-19T23:21:27.411Z,14.08
2022-12-19T23:23:53.779Z,13.84
2022-12-19T23:26:20.114Z,13.80
2022-12-19T23:28:46.475Z,13.68
2022-12-19T23:31:12.868Z,13.98
2022-12-19T23:33:39.296Z,14.05
2022-12-19T23:36:05.722Z,13.95
2022-12-19T23:38:32.119Z,13.17
2022-12-19T23:40:58.488Z,12.80
2022-12-19T23:43:24.856Z,12.08
2022-12-19T23:45:51.469Z,11.00
2022-12-19T23:48:17.846Z,10.39
2022-12-19T23:50:44.184Z,10.21
2022-12-19T23:53:10.556Z,10.87
2022-12-19T23:55:36.931Z,11.26
2022-12-19T23:58:07.879Z,11.31
